Time;durP1;ratioP1;P1;durP2;ratioP2;P2;SDS_P1;SDS_P2;PMS_P1;PMS_P2;Temp;Humidity;BMP_temperature;BMP_pressure;BME280_temperature;BME280_humidity;BME280_pressure;Samples;Min_cycle;Max_cycle;Signal;HPM_P1;HPM_P2
2022/11/22 14:37:19;;;;;;;4.68;2.50;;;27.50;91.90;;;;;;5095169;27;20410;-53
2022/11/22 14:39:51;;;;;;;3.85;2.55;;;27.70;92.00;;;;;;5091422;28;20091;-59
2022/11/22 14:45:09;;;;;;;4.65;2.70;;;27.50;92.00;;;;;;5093671;28;20032;-57
2022/11/22 14:47:54;;;;;;;6.22;3.10;;;27.50;92.10;;;;;;5101258;28;20332;-56
2022/11/22 14:50:31;;;;;;;6.22;2.58;;;27.60;92.10;;;;;;5101789;28;20040;-56
2022/11/22 14:53:18;;;;;;;4.38;2.83;;;27.60;92.10;;;;;;5094489;28;20311;-55
2022/11/22 14:55:47;;;;;;;5.43;2.75;;;27.60;92.20;;;;;;5087031;28;20107;-54
2022/11/22 14:58:23;;;;;;;4.47;2.95;;;27.50;92.20;;;;;;5080770;28;20016;-55
2022/11/22 15:01:27;;;;;;;6.28;3.03;;;27.50;92.20;;;;;;5080894;28;20036;-54
2022/11/22 15:04:02;;;;;;;4.68;2.63;;;27.50;92.20;;;;;;5080599;28;20016;-54
2022/11/22 15:06:48;;;;;;;4.82;2.90;;;27.50;92.20;;;;;;5080992;28;20123;-54
2022/11/22 15:09:40;;;;;;;5.03;2.92;;;27.50;92.20;;;;;;5092265;28;20012;-53
2022/11/22 15:12:25;;;;;;;4.00;2.92;;;27.50;92.20;;;;;;5061727;28;20383;-57
2022/11/22 15:15:08;;;;;;;6.32;2.90;;;27.60;92.40;;;;;;5096449;28;20020;-53
2022/11/22 15:17:36;;;;;;;;;;;27.60;92.20;;;;;;5093537;28;20221;-52
2022/11/22 15:20:04;;;;;;;6.07;3.45;;;27.60;92.20;;;;;;5097848;28;19932;-59
2022/11/22 15:22:30;;;;;;;5.70;3.70;;;27.60;92.30;;;;;;5091648;28;20038;-53
2022/11/22 15:24:58;;;;;;;5.82;3.35;;;27.60;92.10;;;;;;5082439;28;20029;-54
2022/11/22 15:27:37;;;;;;;6.45;3.38;;;27.70;92.30;;;;;;5091169;28;20302;-54
2022/11/22 15:30:20;;;;;;;6.80;4.03;;;27.70;91.80;;;;;;5088421;28;20082;-60
2022/11/22 15:32:49;;;;;;;8.00;3.65;;;27.70;91.90;;;;;;5088678;28;20016;-54
2022/11/22 15:35:21;;;;;;;5.13;3.92;;;27.70;91.90;;;;;;5100068;28;20111;-55
2022/11/22 15:38:08;;;;;;;5.82;3.65;;;27.70;91.50;;;;;;5089166;28;20036;-55
2022/11/22 15:40:39;;;;;;;6.40;3.63;;;27.70;91.60;;;;;;5087028;28;20100;-54
2022/11/22 15:43:12;;;;;;;6.65;3.90;;;27.70;91.60;;;;;;5083102;28;20330;-56
2022/11/22 15:45:42;;;;;;;5.65;3.72;;;27.80;91.80;;;;;;5075575;28;20043;-56
2022/11/22 15:48:13;;;;;;;4.63;3.20;;;27.80;91.80;;;;;;5066353;28;20165;-54
2022/11/22 15:51:08;;;;;;;5.57;3.65;;;27.80;91.10;;;;;;5066282;28;20029;-54
2022/11/22 15:53:36;;;;;;;6.63;3.38;;;27.80;91.60;;;;;;5077608;28;20308;-53
2022/11/22 15:56:12;;;;;;;8.00;3.17;;;27.80;91.50;;;;;;5084426;28;20068;-57
2022/11/22 15:58:45;;;;;;;7.40;3.55;;;27.80;91.60;;;;;;5079745;28;20021;-53
2022/11/22 16:01:17;;;;;;;9.82;3.50;;;27.80;91.60;;;;;;5075262;28;20150;-59
2022/11/22 16:03:49;;;;;;;7.10;3.20;;;27.80;91.60;;;;;;5083249;28;20031;-57
2022/11/22 16:06:24;;;;;;;7.10;3.05;;;27.80;91.50;;;;;;5083526;28;20359;-57
2022/11/22 16:09:06;;;;;;;8.25;3.60;;;27.80;90.90;;;;;;5075664;28;20017;-55
2022/11/22 16:11:39;;;;;;;6.20;3.60;;;27.80;91.40;;;;;;5080358;28;20029;-54
2022/11/22 16:14:43;;;;;;;4.75;3.38;;;27.80;91.30;;;;;;5076262;28;20061;-57
2022/11/22 16:17:25;;;;;;;6.93;3.25;;;27.90;91.20;;;;;;5065875;28;20037;-49
2022/11/22 16:19:54;;;;;;;5.55;3.65;;;27.90;90.60;;;;;;5066140;28;20024;-49
2022/11/22 16:22:31;;;;;;;4.75;3.25;;;28.00;91.10;;;;;;5081396;28;20074;-52
2022/11/22 16:25:31;;;;;;;9.07;3.80;;;28.00;91.50;;;;;;5078283;28;20334;-59
2022/11/22 16:28:00;;;;;;;5.72;3.47;;;28.00;90.80;;;;;;5078981;28;20029;-55
2022/11/22 16:30:26;;;;;;;5.35;3.33;;;28.00;91.20;;;;;;5082650;28;20078;-53
2022/11/22 16:32:55;;;;;;;3.67;3.15;;;28.00;91.00;;;;;;5085736;28;20294;-56
2022/11/22 16:35:21;;;;;;;5.00;3.50;;;28.00;91.10;;;;;;5085426;28;20048;-58
2022/11/22 16:37:49;;;;;;;5.60;3.58;;;28.10;91.10;;;;;;5085852;28;20023;-53
2022/11/22 16:40:16;;;;;;;7.70;3.47;;;28.10;91.30;;;;;;5083269;28;20086;-53
2022/11/22 16:42:43;;;;;;;37.42;12.05;;;28.10;91.30;;;;;;5083960;28;20016;-57
2022/11/22 16:45:16;;;;;;;151.35;46.13;;;28.10;91.30;;;;;;5080242;28;20068;-55
2022/11/22 16:47:44;;;;;;;116.60;33.40;;;28.10;91.30;;;;;;5074745;28;20017;-52
2022/11/22 16:50:12;;;;;;;106.75;29.65;;;28.20;91.30;;;;;;5073738;28;20088;-58
2022/11/22 16:52:40;;;;;;;90.13;25.38;;;28.20;91.50;;;;;;5082553;28;20024;-52
2022/11/22 16:55:18;;;;;;;67.10;21.23;;;28.20;91.30;;;;;;5082795;28;20200;-53
2022/11/22 16:57:44;;;;;;;48.83;16.13;;;28.20;91.40;;;;;;5084639;28;20036;-55
2022/11/22 17:00:12;;;;;;;50.33;17.55;;;28.30;91.40;;;;;;5071481;28;20033;-51
2022/11/22 17:02:39;;;;;;;45.00;15.07;;;28.30;91.50;;;;;;5082339;28;20032;-51
2022/11/22 17:05:07;;;;;;;41.03;12.48;;;28.30;91.40;;;;;;5074232;28;20043;-55
2022/11/22 17:07:33;;;;;;;26.90;9.02;;;28.30;91.50;;;;;;5076320;28;20017;-52
2022/11/22 17:10:00;;;;;;;23.52;8.50;;;28.30;91.20;;;;;;5073193;28;20043;-51
2022/11/22 17:12:27;;;;;;;19.33;7.20;;;28.30;91.20;;;;;;5084387;28;20152;-56
2022/11/22 17:14:54;;;;;;;16.70;7.00;;;28.30;91.20;;;;;;5085043;28;20032;-58
2022/11/22 17:17:20;;;;;;;17.85;6.65;;;28.30;91.10;;;;;;5082221;28;20214;-59
2022/11/22 17:19:49;;;;;;;12.55;5.82;;;28.30;91.10;;;;;;5074003;28;20096;-56
2022/11/22 17:22:17;;;;;;;13.38;5.80;;;28.40;91.00;;;;;;5064764;28;20198;-57
2022/11/22 17:24:44;;;;;;;8.52;4.80;;;28.40;91.20;;;;;;5066399;28;20033;-52
2022/11/22 17:27:14;;;;;;;7.78;4.53;;;28.40;91.40;;;;;;5073487;28;20040;-55
2022/11/22 17:29:44;;;;;;;7.03;4.03;;;28.40;91.20;;;;;;5075416;28;20093;-54
2022/11/22 17:32:14;;;;;;;5.82;4.20;;;28.40;91.00;;;;;;5068991;28;20020;-55
2022/11/22 17:34:41;;;;;;;9.43;4.32;;;28.40;91.20;;;;;;5064438;28;20321;-57
2022/11/22 17:37:11;;;;;;;5.78;3.78;;;28.40;91.00;;;;;;5064197;28;20052;-53
2022/11/22 17:39:38;;;;;;;6.82;4.22;;;28.40;91.20;;;;;;5064098;28;20331;-52
2022/11/22 17:42:06;;;;;;;7.03;3.40;;;28.40;91.00;;;;;;5067552;28;20025;-54
2022/11/22 17:44:32;;;;;;;5.72;3.50;;;28.40;90.90;;;;;;5071912;28;20040;-56
2022/11/22 17:46:59;;;;;;;7.18;3.60;;;28.40;90.80;;;;;;5073925;28;20013;-54
2022/11/22 17:49:26;;;;;;;7.13;4.00;;;28.40;90.80;;;;;;5065335;28;20033;-54
2022/11/22 17:51:53;;;;;;;6.78;3.95;;;28.50;91.00;;;;;;5064348;28;20045;-54
2022/11/22 17:54:20;;;;;;;7.78;5.53;;;28.40;90.50;;;;;;5064023;28;20016;-53
2022/11/22 17:56:47;;;;;;;6.43;4.22;;;28.50;90.40;;;;;;5067661;28;20325;-53
2022/11/22 17:59:13;;;;;;;8.10;4.63;;;28.50;90.50;;;;;;5071550;28;20200;-58
2022/11/22 18:01:42;;;;;;;8.07;4.80;;;28.50;90.60;;;;;;5064806;28;20304;-57
2022/11/22 18:04:08;;;;;;;6.07;4.65;;;28.50;90.70;;;;;;5063934;28;20028;-53
2022/11/22 18:06:35;;;;;;;8.15;4.82;;;28.50;90.70;;;;;;5067342;28;20056;-52
2022/11/22 18:09:03;;;;;;;6.95;4.53;;;28.60;90.50;;;;;;5072779;28;20048;-50
2022/11/22 18:11:30;;;;;;;9.30;4.18;;;28.60;90.60;;;;;;5064108;28;20028;-62
2022/11/22 18:13:56;;;;;;;6.07;4.30;;;28.60;90.40;;;;;;5064450;28;20078;-57
2022/11/22 18:16:27;;;;;;;6.13;3.72;;;28.60;90.50;;;;;;5066821;28;20025;-52
2022/11/22 18:18:57;;;;;;;6.03;3.97;;;28.70;90.60;;;;;;5073993;28;20054;-51
2022/11/22 18:21:33;;;;;;;8.38;4.00;;;28.70;90.70;;;;;;5068253;28;20312;-54
2022/11/22 18:24:01;;;;;;;5.68;3.80;;;28.70;90.50;;;;;;5064027;28;20132;-55
2022/11/22 18:26:28;;;;;;;5.03;3.63;;;28.70;90.50;;;;;;5064090;28;20033;-55
2022/11/22 18:28:54;;;;;;;6.55;3.42;;;28.70;90.70;;;;;;5064521;28;20033;-56
2022/11/22 18:31:21;;;;;;;6.00;3.50;;;28.70;90.70;;;;;;5075197;28;20028;-54
2022/11/22 18:33:47;;;;;;;4.85;3.53;;;28.70;90.60;;;;;;5079623;28;20076;-53
2022/11/22 18:36:33;;;;;;;4.55;3.13;;;28.70;90.60;;;;;;5074836;28;20064;-58
2022/11/22 18:39:00;;;;;;;5.03;3.10;;;28.70;90.70;;;;;;5072567;28;20327;-62
2022/11/22 18:41:26;;;;;;;4.53;3.00;;;28.70;90.70;;;;;;5062741;28;20037;-61
2022/11/22 18:43:53;;;;;;;5.28;3.28;;;28.70;90.70;;;;;;5063647;28;20056;-57
2022/11/22 18:46:20;;;;;;;6.72;3.30;;;28.70;90.80;;;;;;5065051;28;20028;-59
2022/11/22 18:48:50;;;;;;;6.20;3.70;;;28.70;90.90;;;;;;5071901;28;20205;-56
2022/11/22 18:51:16;;;;;;;8.43;3.35;;;28.70;90.90;;;;;;5063959;28;20028;-56
2022/11/22 18:53:43;;;;;;;6.07;3.63;;;28.80;90.90;;;;;;5063623;28;20035;-57
2022/11/22 18:56:12;;;;;;;9.60;3.50;;;28.70;90.70;;;;;;5064049;28;20051;-55
2022/11/22 18:58:39;;;;;;;5.60;3.35;;;28.70;90.90;;;;;;5063286;28;19943;-56
2022/11/22 19:01:13;;;;;;;5.88;3.35;;;28.70;90.90;;;;;;5063637;28;20033;-57
2022/11/22 19:03:40;;;;;;;5.60;3.58;;;28.80;90.40;;;;;;5063386;28;20093;-57
2022/11/22 19:06:17;;;;;;;5.22;3.40;;;28.80;90.80;;;;;;5063774;28;20044;-55
2022/11/22 19:08:45;;;;;;;4.53;3.00;;;28.80;90.90;;;;;;5069851;28;20216;-54
2022/11/22 19:11:12;;;;;;;7.57;3.17;;;28.80;90.70;;;;;;5077100;28;20319;-55
2022/11/22 19:13:39;;;;;;;;;;;28.80;90.80;;;;;;5068243;28;19905;-59
2022/11/22 19:16:14;;;;;;;6.65;3.45;;;28.80;90.70;;;;;;5067304;28;19936;-60
2022/11/22 19:18:42;;;;;;;4.78;3.17;;;28.80;90.60;;;;;;5067446;28;20039;-56
2022/11/22 19:21:14;;;;;;;4.97;3.00;;;28.80;90.70;;;;;;5067398;28;20032;-55
2022/11/22 19:23:41;;;;;;;5.25;3.15;;;28.80;90.70;;;;;;5076319;28;20060;-56
2022/11/22 19:26:13;;;;;;;4.53;3.05;;;28.80;90.70;;;;;;5076692;28;20249;-54
2022/11/22 19:28:40;;;;;;;4.63;2.80;;;28.80;90.40;;;;;;5076170;28;20087;-60
2022/11/22 19:31:11;;;;;;;4.35;2.67;;;28.80;90.40;;;;;;5070541;28;20025;-57
2022/11/22 19:33:37;;;;;;;5.72;2.72;;;28.90;90.40;;;;;;5066907;28;20335;-55
2022/11/22 19:36:07;;;;;;;6.38;2.60;;;28.90;90.60;;;;;;5066910;28;20147;-54
2022/11/22 19:38:33;;;;;;;12.35;3.40;;;28.90;90.50;;;;;;5069108;28;20024;-56
2022/11/22 19:41:00;;;;;;;8.85;3.53;;;28.90;90.40;;;;;;5076164;28;20095;-54
2022/11/22 19:43:27;;;;;;;43.72;6.03;;;28.90;90.50;;;;;;5077668;28;20044;-55
2022/11/22 19:45:58;;;;;;;122.45;13.20;;;28.90;90.50;;;;;;5078083;28;20033;-55
2022/11/22 19:48:24;;;;;;;90.35;9.95;;;28.90;90.20;;;;;;5066601;28;20033;-57
2022/11/22 19:50:51;;;;;;;52.80;7.38;;;28.90;90.20;;;;;;5066765;28;20044;-57
2022/11/22 19:53:18;;;;;;;236.32;27.45;;;28.90;90.10;;;;;;5066214;28;20340;-57
2022/11/22 19:55:44;;;;;;;144.18;17.95;;;28.90;90.20;;;;;;5066654;28;20025;-55
2022/11/22 19:58:11;;;;;;;64.72;8.77;;;28.90;90.30;;;;;;5066552;28;20059;-51
2022/11/22 20:00:38;;;;;;;26.38;5.10;;;29.00;90.50;;;;;;5066054;28;20264;-57
2022/11/22 20:03:04;;;;;;;20.70;3.85;;;29.00;90.10;;;;;;5066398;28;20084;-52
2022/11/22 20:05:31;;;;;;;20.83;4.45;;;29.10;90.00;;;;;;5068754;28;20033;-58
2022/11/22 20:07:58;;;;;;;11.82;3.20;;;29.10;90.20;;;;;;5074939;28;20204;-53
2022/11/22 20:10:25;;;;;;;16.02;3.47;;;29.10;90.00;;;;;;5073125;28;20303;-54
2022/11/22 20:12:52;;;;;;;18.33;3.70;;;29.10;90.20;;;;;;5085947;28;20304;-54
2022/11/22 20:15:18;;;;;;;17.17;3.65;;;29.10;90.30;;;;;;5077521;28;20021;-51
2022/11/22 20:17:45;;;;;;;12.63;3.50;;;29.10;90.40;;;;;;5066281;28;20112;-49
2022/11/22 20:20:14;;;;;;;14.45;3.95;;;29.10;90.50;;;;;;5071599;28;20065;-49
2022/11/22 20:22:41;;;;;;;13.35;3.60;;;29.10;90.40;;;;;;5085748;28;20036;-53
2022/11/22 20:25:07;;;;;;;13.00;3.20;;;29.10;90.40;;;;;;5085863;28;20026;-49
2022/11/22 20:27:34;;;;;;;14.27;3.65;;;29.10;90.10;;;;;;5071591;28;20277;-50
2022/11/22 20:30:01;;;;;;;13.85;3.50;;;29.00;90.50;;;;;;5065344;28;20044;-50
2022/11/22 20:32:31;;;;;;;9.98;3.65;;;29.00;90.50;;;;;;5065718;28;20009;-50
2022/11/22 20:34:58;;;;;;;10.55;3.47;;;29.00;90.80;;;;;;5065660;28;20044;-52
2022/11/22 20:37:24;;;;;;;7.82;3.20;;;29.00;90.90;;;;;;5071385;28;20043;-54
2022/11/22 20:39:51;;;;;;;7.60;3.00;;;29.00;90.80;;;;;;5085721;28;20028;-50
2022/11/22 20:42:18;;;;;;;6.47;3.00;;;29.00;90.50;;;;;;5080393;28;20220;-51
2022/11/22 20:44:48;;;;;;;5.75;3.10;;;29.00;90.60;;;;;;5067325;28;20276;-50
2022/11/22 20:47:14;;;;;;;7.70;3.10;;;29.00;90.80;;;;;;5079668;28;20052;-55
2022/11/22 20:49:41;;;;;;;6.82;3.22;;;29.00;90.70;;;;;;5072361;28;20036;-53
2022/11/22 20:52:09;;;;;;;4.97;3.10;;;29.10;90.70;;;;;;5079739;28;20027;-47
2022/11/22 20:54:35;;;;;;;15.15;3.25;;;29.00;90.40;;;;;;5066814;28;20088;-58
2022/11/22 20:57:02;;;;;;;12.20;3.58;;;29.10;90.60;;;;;;5073573;28;20331;-50
2022/11/22 20:59:29;;;;;;;18.80;4.30;;;29.00;90.50;;;;;;5073437;28;20032;-49
2022/11/22 21:01:55;;;;;;;14.65;3.67;;;29.00;90.40;;;;;;5080423;28;20012;-59
2022/11/22 21:04:22;;;;;;;14.27;4.03;;;29.00;90.60;;;;;;5084023;28;20024;-44
2022/11/22 21:06:48;;;;;;;14.23;3.83;;;29.00;90.70;;;;;;5080779;28;20212;-55
2022/11/22 21:09:15;;;;;;;10.45;4.13;;;29.10;90.50;;;;;;5071094;28;20129;-52
2022/11/22 21:11:44;;;;;;;13.98;3.58;;;29.00;90.60;;;;;;5078870;28;20043;-52
2022/11/22 21:14:11;;;;;;;5.85;3.30;;;29.10;90.60;;;;;;5080647;28;20009;-53
2022/11/22 21:16:38;;;;;;;11.90;3.92;;;29.00;90.30;;;;;;5082277;28;20024;-55
2022/11/22 21:19:04;;;;;;;12.00;3.53;;;29.00;90.50;;;;;;5068560;28;20048;-50
2022/11/22 21:21:33;;;;;;;14.70;3.75;;;29.00;90.40;;;;;;5068311;28;20028;-51
2022/11/22 21:24:01;;;;;;;21.10;3.97;;;29.00;90.40;;;;;;5084772;28;20263;-52
2022/11/22 21:26:28;;;;;;;21.08;4.25;;;29.00;90.50;;;;;;5084981;28;20075;-50
2022/11/22 21:28:56;;;;;;;21.42;5.00;;;29.00;90.40;;;;;;5078890;28;20029;-56
2022/11/22 21:31:23;;;;;;;15.98;3.55;;;29.00;90.60;;;;;;5079393;28;20013;-52
2022/11/22 21:33:50;;;;;;;14.05;3.42;;;29.00;90.60;;;;;;5069983;28;20328;-50
2022/11/22 21:36:17;;;;;;;8.00;3.25;;;29.00;90.90;;;;;;5078805;28;20179;-55
2022/11/22 21:38:44;;;;;;;8.60;2.95;;;28.90;91.00;;;;;;5069106;28;20099;-52
2022/11/22 21:41:16;;;;;;;9.68;3.53;;;28.90;91.30;;;;;;5077908;28;20092;-51
2022/11/22 21:43:42;;;;;;;7.25;3.22;;;28.90;91.40;;;;;;5084240;28;20208;-54
2022/11/22 21:46:09;;;;;;;7.18;3.10;;;28.90;91.70;;;;;;5084731;28;20079;-54
2022/11/22 21:48:35;;;;;;;5.18;3.20;;;28.90;91.70;;;;;;5084300;28;20021;-54
2022/11/22 21:51:02;;;;;;;4.72;3.00;;;28.90;91.70;;;;;;5083617;28;20028;-48
2022/11/22 21:53:29;;;;;;;7.78;3.78;;;28.90;91.80;;;;;;5084213;28;20312;-48
2022/11/22 21:55:57;;;;;;;5.00;3.05;;;28.90;91.80;;;;;;5082022;28;20035;-51
2022/11/22 21:58:26;;;;;;;4.18;3.00;;;28.90;91.90;;;;;;5082324;28;20442;-52
2022/11/22 22:01:00;;;;;;;4.28;3.00;;;28.90;92.00;;;;;;5083576;28;20363;-57
2022/11/22 22:03:28;;;;;;;8.10;3.30;;;28.80;92.10;;;;;;5075178;28;20343;-48
2022/11/22 22:05:56;;;;;;;6.82;3.58;;;28.80;92.20;;;;;;5084267;28;20036;-45
2022/11/22 22:08:27;;;;;;;5.97;3.63;;;28.80;92.20;;;;;;5084207;28;20013;-45
2022/11/22 22:10:57;;;;;;;8.45;4.00;;;28.80;92.10;;;;;;5084348;28;20032;-51
2022/11/22 22:13:24;;;;;;;7.88;4.80;;;28.80;92.20;;;;;;5080161;28;20012;-56
2022/11/22 22:15:58;;;;;;;8.07;4.38;;;28.80;92.40;;;;;;5084268;28;20036;-46
2022/11/22 22:18:32;;;;;;;6.93;3.63;;;28.70;92.50;;;;;;5082001;28;20032;-51
2022/11/22 22:21:01;;;;;;;6.60;4.13;;;28.80;92.60;;;;;;5074005;28;20276;-52
2022/11/22 22:23:29;;;;;;;11.20;4.38;;;28.80;92.70;;;;;;5072967;28;20032;-49
2022/11/22 22:26:06;;;;;;;7.38;4.30;;;28.80;92.80;;;;;;5075055;28;20364;-50
2022/11/22 22:28:35;;;;;;;9.30;4.30;;;28.80;92.70;;;;;;5075694;28;20077;-50
2022/11/22 22:31:07;;;;;;;6.95;4.30;;;28.80;92.70;;;;;;5084138;28;20059;-46
2022/11/22 22:33:36;;;;;;;9.00;3.92;;;28.90;92.70;;;;;;5083883;28;20017;-49
2022/11/22 22:36:03;;;;;;;6.75;3.78;;;28.90;92.60;;;;;;5076399;28;20049;-53
2022/11/22 22:38:31;;;;;;;5.70;3.38;;;28.90;92.50;;;;;;5070607;28;20027;-58
2022/11/22 22:40:59;;;;;;;4.95;3.63;;;28.90;92.50;;;;;;5072338;28;20304;-51
2022/11/22 22:43:31;;;;;;;5.82;3.60;;;28.90;92.50;;;;;;5070841;28;20364;-50
2022/11/22 22:46:12;;;;;;;7.38;3.42;;;28.80;92.50;;;;;;5075332;28;20040;-50
2022/11/22 22:48:40;;;;;;;7.10;3.67;;;28.80;92.50;;;;;;5072802;28;20021;-55
2022/11/22 22:51:18;;;;;;;5.50;3.45;;;28.80;92.50;;;;;;5074646;28;20044;-50
2022/11/22 22:53:45;;;;;;;6.53;4.03;;;28.80;92.50;;;;;;5074450;28;20032;-53
2022/11/22 22:56:14;;;;;;;7.68;3.90;;;28.80;92.60;;;;;;5088080;28;20108;-54
2022/11/22 22:58:41;;;;;;;8.43;3.70;;;28.80;92.70;;;;;;5087548;28;20047;-48
2022/11/22 23:01:20;;;;;;;5.78;3.72;;;28.80;92.60;;;;;;5088032;28;20059;-52
2022/11/22 23:03:54;;;;;;;7.10;4.10;;;28.80;92.70;;;;;;5085600;28;20025;-49
2022/11/22 23:06:22;;;;;;;11.68;3.63;;;28.80;92.90;;;;;;5086848;28;20146;-50
2022/11/22 23:08:53;;;;;;;10.40;4.20;;;28.80;92.90;;;;;;5087340;28;20036;-55
2022/11/22 23:14:13;;;;;;;8.07;3.70;;;28.80;92.90;;;;;;5086775;28;20078;-54
2022/11/22 23:16:40;;;;;;;6.85;3.78;;;28.80;93.00;;;;;;5087142;28;20047;-55
2022/11/22 23:19:07;;;;;;;7.75;3.85;;;28.80;93.00;;;;;;5085963;28;20055;-56
2022/11/22 23:21:34;;;;;;;6.20;3.40;;;28.80;93.00;;;;;;5085468;28;20090;-53
2022/11/22 23:24:01;;;;;;;7.65;3.40;;;28.80;93.00;;;;;;5085110;28;20028;-52
2022/11/22 23:26:28;;;;;;;6.25;3.90;;;28.80;93.10;;;;;;5085465;28;20043;-56
2022/11/22 23:28:54;;;;;;;7.15;3.50;;;28.80;93.20;;;;;;5085345;28;20087;-55
2022/11/22 23:31:21;;;;;;;6.45;3.50;;;28.80;93.10;;;;;;5085602;28;20032;-54
2022/11/22 23:33:48;;;;;;;7.82;4.13;;;28.80;93.20;;;;;;5085129;28;20069;-52
2022/11/22 23:36:16;;;;;;;5.78;3.97;;;28.80;93.10;;;;;;5085597;28;20064;-56
2022/11/22 23:38:45;;;;;;;7.47;3.83;;;28.80;93.10;;;;;;5086780;28;20024;-55
2022/11/22 23:41:14;;;;;;;8.57;4.30;;;28.80;93.10;;;;;;5087081;28;20308;-54
2022/11/22 23:43:42;;;;;;;10.95;3.80;;;28.80;93.00;;;;;;5086563;28;20032;-55
2022/11/22 23:46:16;;;;;;;7.18;4.10;;;28.80;93.00;;;;;;5086884;28;20052;-56
2022/11/22 23:48:43;;;;;;;5.05;3.65;;;28.80;93.00;;;;;;5086417;28;20048;-54
2022/11/22 23:51:10;;;;;;;4.82;3.45;;;28.80;93.00;;;;;;5086726;28;20234;-60
2022/11/22 23:53:37;;;;;;;8.45;4.68;;;28.80;93.00;;;;;;5086466;28;20220;-52
2022/11/22 23:56:12;;;;;;;8.80;4.60;;;28.80;93.10;;;;;;5086672;28;20024;-54
2022/11/22 23:58:39;;;;;;;6.97;4.93;;;28.80;93.10;;;;;;5085638;28;20028;-55
